sensor_id;sensor_type;location;lat;lon;timestamp;pressure;altitude;pressure_sealevel;temperature;humidity
33432;BME280;35187;31.882;34.828;2023-05-15T00:01:39;100700;;;20;55
33432;BME280;35187;31.882;34.828;2023-05-15T00:04:08;100700;;;20;55
33432;BME280;35187;31.882;34.828;2023-05-15T00:06:38;100700;;;20;55
33432;BME280;35187;31.882;34.828;2023-05-15T00:09:07;100700;;;20;55
33432;BME280;35187;31.882;34.828;2023-05-15T00:11:43;100700;;;20;55
33432;BME280;35187;31.882;34.828;2023-05-15T00:14:12;100710;;;20;55
33432;BME280;35187;31.882;34.828;2023-05-15T00:16:42;100710;;;20;55
33432;BME280;35187;31.882;34.828;2023-05-15T00:19:11;100710;;;20;55
33432;BME280;35187;31.882;34.828;2023-05-15T00:21:40;100710;;;20;55
33432;BME280;35187;31.882;34.828;2023-05-15T00:24:09;100700;;;20;55
33432;BME280;35187;31.882;34.828;2023-05-15T00:26:39;100710;;;20;55
33432;BME280;35187;31.882;34.828;2023-05-15T00:29:09;100710;;;20;55
33432;BME280;35187;31.882;34.828;2023-05-15T00:31:38;100700;;;20;55
33432;BME280;35187;31.882;34.828;2023-05-15T00:34:07;100700;;;20;55
33432;BME280;35187;31.882;34.828;2023-05-15T00:36:36;100700;;;20;55
33432;BME280;35187;31.882;34.828;2023-05-15T00:39:05;100690;;;20;55
33432;BME280;35187;31.882;34.828;2023-05-15T00:41:38;100690;;;20;55
33432;BME280;35187;31.882;34.828;2023-05-15T00:44:09;100690;;;20;55
33432;BME280;35187;31.882;34.828;2023-05-15T00:46:46;100690;;;20;55
33432;BME280;35187;31.882;34.828;2023-05-15T00:49:18;100690;;;20;55
33432;BME280;35187;31.882;34.828;2023-05-15T00:51:50;100690;;;20;55
33432;BME280;35187;31.882;34.828;2023-05-15T00:54:20;100700;;;20;55
33432;BME280;35187;31.882;34.828;2023-05-15T00:56:50;100690;;;20;55
33432;BME280;35187;31.882;34.828;2023-05-15T00:59:21;100690;;;20;55
33432;BME280;35187;31.882;34.828;2023-05-15T01:01:52;100690;;;20;55
33432;BME280;35187;31.882;34.828;2023-05-15T01:04:21;100690;;;20;55
33432;BME280;35187;31.882;34.828;2023-05-15T01:06:51;100690;;;20;55
33432;BME280;35187;31.882;34.828;2023-05-15T01:09:21;100680;;;20;55
33432;BME280;35187;31.882;34.828;2023-05-15T01:11:54;100680;;;20;55
33432;BME280;35187;31.882;34.828;2023-05-15T01:14:25;100670;;;20;55
33432;BME280;35187;31.882;34.828;2023-05-15T01:16:54;100670;;;20;55
33432;BME280;35187;31.882;34.828;2023-05-15T01:19:24;100670;;;20;56
33432;BME280;35187;31.882;34.828;2023-05-15T01:22:20;100670;;;20;56
33432;BME280;35187;31.882;34.828;2023-05-15T01:25:16;100670;;;20;56
33432;BME280;35187;31.882;34.828;2023-05-15T01:27:49;100660;;;20;56
33432;BME280;35187;31.882;34.828;2023-05-15T01:30:23;100660;;;20;56
33432;BME280;35187;31.882;34.828;2023-05-15T01:33:02;100660;;;20;56
33432;BME280;35187;31.882;34.828;2023-05-15T01:35:40;100660;;;20;56
33432;BME280;35187;31.882;34.828;2023-05-15T01:38:18;100660;;;20;56
33432;BME280;35187;31.882;34.828;2023-05-15T01:40:48;100650;;;20;56
33432;BME280;35187;31.882;34.828;2023-05-15T01:43:23;100660;;;20;56
33432;BME280;35187;31.882;34.828;2023-05-15T01:45:58;100660;;;20;56
33432;BME280;35187;31.882;34.828;2023-05-15T01:48:27;100660;;;20;57
33432;BME280;35187;31.882;34.828;2023-05-15T01:51:02;100650;;;20;57
33432;BME280;35187;31.882;34.828;2023-05-15T01:53:33;100650;;;20;57
33432;BME280;35187;31.882;34.828;2023-05-15T01:56:07;100660;;;20;57
33432;BME280;35187;31.882;34.828;2023-05-15T01:58:39;100660;;;20;57
33432;BME280;35187;31.882;34.828;2023-05-15T02:01:09;100650;;;20;57
33432;BME280;35187;31.882;34.828;2023-05-15T02:03:43;100650;;;20;57
33432;BME280;35187;31.882;34.828;2023-05-15T02:06:13;100650;;;20;57
33432;BME280;35187;31.882;34.828;2023-05-15T02:08:44;100650;;;20;57
33432;BME280;35187;31.882;34.828;2023-05-15T02:11:17;100650;;;20;57
33432;BME280;35187;31.882;34.828;2023-05-15T02:13:47;100650;;;20;57
33432;BME280;35187;31.882;34.828;2023-05-15T02:16:17;100650;;;20;57
33432;BME280;35187;31.882;34.828;2023-05-15T02:18:47;100660;;;20;57
33432;BME280;35187;31.882;34.828;2023-05-15T02:21:17;100660;;;20;57
33432;BME280;35187;31.882;34.828;2023-05-15T02:23:46;100660;;;20;57
33432;BME280;35187;31.882;34.828;2023-05-15T02:26:29;100660;;;20;57
33432;BME280;35187;31.882;34.828;2023-05-15T02:29:08;100660;;;20;57
33432;BME280;35187;31.882;34.828;2023-05-15T02:31:55;100660;;;20;57
33432;BME280;35187;31.882;34.828;2023-05-15T02:34:38;100660;;;20;58
33432;BME280;35187;31.882;34.828;2023-05-15T02:37:12;100660;;;20;58
33432;BME280;35187;31.882;34.828;2023-05-15T02:39:43;100650;;;20;58
33432;BME280;35187;31.882;34.828;2023-05-15T02:42:15;100650;;;20;57
33432;BME280;35187;31.882;34.828;2023-05-15T02:44:46;100650;;;20;57
33432;BME280;35187;31.882;34.828;2023-05-15T02:47:22;100650;;;20;57
33432;BME280;35187;31.882;34.828;2023-05-15T02:49:51;100660;;;20;57
33432;BME280;35187;31.882;34.828;2023-05-15T02:52:23;100660;;;20;57
33432;BME280;35187;31.882;34.828;2023-05-15T02:54:52;100660;;;20;58
33432;BME280;35187;31.882;34.828;2023-05-15T02:57:21;100660;;;20;58
33432;BME280;35187;31.882;34.828;2023-05-15T03:00:01;100660;;;20;58
33432;BME280;35187;31.882;34.828;2023-05-15T03:02:30;100660;;;20;58
33432;BME280;35187;31.882;34.828;2023-05-15T03:04:59;100660;;;20;58
33432;BME280;35187;31.882;34.828;2023-05-15T03:07:29;100660;;;20;58
33432;BME280;35187;31.882;34.828;2023-05-15T03:09:59;100660;;;20;58
33432;BME280;35187;31.882;34.828;2023-05-15T03:12:30;100660;;;20;58
33432;BME280;35187;31.882;34.828;2023-05-15T03:14:59;100660;;;20;58
33432;BME280;35187;31.882;34.828;2023-05-15T03:17:29;100660;;;20;58
33432;BME280;35187;31.882;34.828;2023-05-15T03:19:58;100650;;;20;58
33432;BME280;35187;31.882;34.828;2023-05-15T03:22:27;100650;;;20;57
33432;BME280;35187;31.882;34.828;2023-05-15T03:25:01;100640;;;20;57
33432;BME280;35187;31.882;34.828;2023-05-15T03:27:33;100640;;;20;57
33432;BME280;35187;31.882;34.828;2023-05-15T03:30:09;100640;;;20;57
33432;BME280;35187;31.882;34.828;2023-05-15T03:32:38;100650;;;20;57
33432;BME280;35187;31.882;34.828;2023-05-15T03:35:09;100650;;;20;57
33432;BME280;35187;31.882;34.828;2023-05-15T03:37:43;100650;;;20;57
33432;BME280;35187;31.882;34.828;2023-05-15T03:40:16;100650;;;20;57
33432;BME280;35187;31.882;34.828;2023-05-15T03:42:45;100660;;;20;57
33432;BME280;35187;31.882;34.828;2023-05-15T03:45:15;100660;;;20;57
33432;BME280;35187;31.882;34.828;2023-05-15T03:47:45;100660;;;20;57
33432;BME280;35187;31.882;34.828;2023-05-15T03:50:14;100660;;;20;57
33432;BME280;35187;31.882;34.828;2023-05-15T03:52:43;100660;;;20;57
33432;BME280;35187;31.882;34.828;2023-05-15T03:55:14;100660;;;20;57
33432;BME280;35187;31.882;34.828;2023-05-15T03:57:45;100660;;;20;57
33432;BME280;35187;31.882;34.828;2023-05-15T04:00:17;100660;;;20;57
33432;BME280;35187;31.882;34.828;2023-05-15T04:02:53;100670;;;20;57
33432;BME280;35187;31.882;34.828;2023-05-15T04:05:22;100670;;;20;57
33432;BME280;35187;31.882;34.828;2023-05-15T04:07:51;100670;;;20;57
33432;BME280;35187;31.882;34.828;2023-05-15T04:10:20;100670;;;20;57
33432;BME280;35187;31.882;34.828;2023-05-15T04:12:50;100670;;;20;58
33432;BME280;35187;31.882;34.828;2023-05-15T04:15:21;100670;;;20;58
33432;BME280;35187;31.882;34.828;2023-05-15T04:17:52;100670;;;20;58
33432;BME280;35187;31.882;34.828;2023-05-15T04:20:22;100670;;;20;58
33432;BME280;35187;31.882;34.828;2023-05-15T04:22:52;100660;;;20;58
33432;BME280;35187;31.882;34.828;2023-05-15T04:25:21;100660;;;20;58
33432;BME280;35187;31.882;34.828;2023-05-15T04:27:50;100670;;;20;58
33432;BME280;35187;31.882;34.828;2023-05-15T04:30:19;100670;;;20;58
33432;BME280;35187;31.882;34.828;2023-05-15T04:32:48;100670;;;20;57
33432;BME280;35187;31.882;34.828;2023-05-15T04:35:18;100670;;;20;57
33432;BME280;35187;31.882;34.828;2023-05-15T04:37:47;100670;;;20;57
33432;BME280;35187;31.882;34.828;2023-05-15T04:40:22;100670;;;21;57
33432;BME280;35187;31.882;34.828;2023-05-15T04:42:56;100670;;;21;57
33432;BME280;35187;31.882;34.828;2023-05-15T04:45:27;100660;;;21;57
33432;BME280;35187;31.882;34.828;2023-05-15T04:47:56;100660;;;21;57
33432;BME280;35187;31.882;34.828;2023-05-15T04:50:31;100660;;;21;57
33432;BME280;35187;31.882;34.828;2023-05-15T04:53:00;100660;;;21;57
33432;BME280;35187;31.882;34.828;2023-05-15T04:55:30;100660;;;21;57
33432;BME280;35187;31.882;34.828;2023-05-15T04:57:59;100660;;;20;57
33432;BME280;35187;31.882;34.828;2023-05-15T05:00:28;100650;;;21;57
33432;BME280;35187;31.882;34.828;2023-05-15T05:02:57;100660;;;21;57
33432;BME280;35187;31.882;34.828;2023-05-15T05:05:26;100660;;;21;57
33432;BME280;35187;31.882;34.828;2023-05-15T05:07:55;100660;;;21;57
33432;BME280;35187;31.882;34.828;2023-05-15T05:10:24;100660;;;21;57
33432;BME280;35187;31.882;34.828;2023-05-15T05:12:57;100660;;;21;57
33432;BME280;35187;31.882;34.828;2023-05-15T05:15:29;100660;;;21;56
33432;BME280;35187;31.882;34.828;2023-05-15T05:18:00;100670;;;21;57
33432;BME280;35187;31.882;34.828;2023-05-15T05:20:29;100670;;;21;57
33432;BME280;35187;31.882;34.828;2023-05-15T05:23:01;100660;;;21;57
33432;BME280;35187;31.882;34.828;2023-05-15T05:25:31;100660;;;21;57
33432;BME280;35187;31.882;34.828;2023-05-15T05:28:04;100660;;;21;57
33432;BME280;35187;31.882;34.828;2023-05-15T05:30:33;100660;;;21;56
33432;BME280;35187;31.882;34.828;2023-05-15T05:33:04;100660;;;21;57
33432;BME280;35187;31.882;34.828;2023-05-15T05:35:33;100650;;;21;57
33432;BME280;35187;31.882;34.828;2023-05-15T05:38:03;100650;;;21;57
33432;BME280;35187;31.882;34.828;2023-05-15T05:40:33;100650;;;21;57
33432;BME280;35187;31.882;34.828;2023-05-15T05:43:17;100650;;;21;56
33432;BME280;35187;31.882;34.828;2023-05-15T05:45:47;100640;;;21;56
33432;BME280;35187;31.882;34.828;2023-05-15T05:48:16;100640;;;21;56
33432;BME280;35187;31.882;34.828;2023-05-15T05:50:46;100640;;;21;57
33432;BME280;35187;31.882;34.828;2023-05-15T05:53:15;100640;;;21;56
33432;BME280;35187;31.882;34.828;2023-05-15T05:55:44;100640;;;21;57
33432;BME280;35187;31.882;34.828;2023-05-15T05:58:17;100630;;;21;57
33432;BME280;35187;31.882;34.828;2023-05-15T06:00:46;100620;;;21;56
33432;BME280;35187;31.882;34.828;2023-05-15T06:03:15;100620;;;21;56
33432;BME280;35187;31.882;34.828;2023-05-15T06:05:45;100620;;;21;56
33432;BME280;35187;31.882;34.828;2023-05-15T06:08:14;100620;;;21;56
33432;BME280;35187;31.882;34.828;2023-05-15T06:10:43;100610;;;21;56
33432;BME280;35187;31.882;34.828;2023-05-15T06:13:27;100610;;;21;55
33432;BME280;35187;31.882;34.828;2023-05-15T06:15:56;100610;;;21;56
33432;BME280;35187;31.882;34.828;2023-05-15T06:18:26;100610;;;21;55
33432;BME280;35187;31.882;34.828;2023-05-15T06:20:56;100610;;;21;55
33432;BME280;35187;31.882;34.828;2023-05-15T06:23:25;100610;;;21;55
33432;BME280;35187;31.882;34.828;2023-05-15T06:25:54;100600;;;21;55
33432;BME280;35187;31.882;34.828;2023-05-15T06:28:23;100610;;;21;54
33432;BME280;35187;31.882;34.828;2023-05-15T06:30:52;100600;;;21;54
33432;BME280;35187;31.882;34.828;2023-05-15T06:33:22;100600;;;21;54
33432;BME280;35187;31.882;34.828;2023-05-15T06:36:01;100590;;;21;54
33432;BME280;35187;31.882;34.828;2023-05-15T06:38:30;100590;;;21;54
33432;BME280;35187;31.882;34.828;2023-05-15T06:41:05;100590;;;21;54
33432;BME280;35187;31.882;34.828;2023-05-15T06:43:34;100590;;;21;54
33432;BME280;35187;31.882;34.828;2023-05-15T06:46:03;100590;;;21;54
33432;BME280;35187;31.882;34.828;2023-05-15T06:48:33;100590;;;21;54
33432;BME280;35187;31.882;34.828;2023-05-15T06:51:02;100590;;;21;54
33432;BME280;35187;31.882;34.828;2023-05-15T06:53:31;100590;;;22;54
33432;BME280;35187;31.882;34.828;2023-05-15T06:56:00;100580;;;22;54
33432;BME280;35187;31.882;34.828;2023-05-15T06:58:30;100580;;;21;54
33432;BME280;35187;31.882;34.828;2023-05-15T07:00:59;100580;;;21;54
33432;BME280;35187;31.882;34.828;2023-05-15T07:03:34;100580;;;21;54
33432;BME280;35187;31.882;34.828;2023-05-15T07:06:03;100570;;;21;54
33432;BME280;35187;31.882;34.828;2023-05-15T07:08:32;100570;;;21;54
33432;BME280;35187;31.882;34.828;2023-05-15T07:11:01;100570;;;21;54
33432;BME280;35187;31.882;34.828;2023-05-15T07:13:30;100570;;;21;54
33432;BME280;35187;31.882;34.828;2023-05-15T07:15:59;100570;;;21;54
33432;BME280;35187;31.882;34.828;2023-05-15T07:18:28;100560;;;22;54
33432;BME280;35187;31.882;34.828;2023-05-15T07:20:57;100560;;;21;54
33432;BME280;35187;31.882;34.828;2023-05-15T07:23:26;100550;;;21;54
33432;BME280;35187;31.882;34.828;2023-05-15T07:25:55;100550;;;21;54
33432;BME280;35187;31.882;34.828;2023-05-15T07:28:24;100550;;;21;54
33432;BME280;35187;31.882;34.828;2023-05-15T07:30:54;100550;;;22;54
33432;BME280;35187;31.882;34.828;2023-05-15T07:33:22;100540;;;22;53
33432;BME280;35187;31.882;34.828;2023-05-15T07:35:51;100540;;;21;53
33432;BME280;35187;31.882;34.828;2023-05-15T07:38:20;100540;;;22;53
33432;BME280;35187;31.882;34.828;2023-05-15T07:40:49;100540;;;21;53
33432;BME280;35187;31.882;34.828;2023-05-15T07:43:18;100540;;;21;53
33432;BME280;35187;31.882;34.828;2023-05-15T07:45:47;100530;;;22;53
33432;BME280;35187;31.882;34.828;2023-05-15T07:48:18;100530;;;21;53
33432;BME280;35187;31.882;34.828;2023-05-15T07:50:48;100530;;;21;53
33432;BME280;35187;31.882;34.828;2023-05-15T07:53:17;100530;;;21;53
33432;BME280;35187;31.882;34.828;2023-05-15T07:55:46;100520;;;21;53
33432;BME280;35187;31.882;34.828;2023-05-15T07:58:18;100520;;;21;53
33432;BME280;35187;31.882;34.828;2023-05-15T08:00:47;100520;;;21;53
33432;BME280;35187;31.882;34.828;2023-05-15T08:03:16;100520;;;21;53
33432;BME280;35187;31.882;34.828;2023-05-15T08:05:46;100520;;;21;53
33432;BME280;35187;31.882;34.828;2023-05-15T08:08:15;100510;;;21;53
33432;BME280;35187;31.882;34.828;2023-05-15T08:10:45;100510;;;21;53
33432;BME280;35187;31.882;34.828;2023-05-15T08:13:26;100510;;;21;53
33432;BME280;35187;31.882;34.828;2023-05-15T08:15:55;100500;;;21;53
33432;BME280;35187;31.882;34.828;2023-05-15T08:18:26;100500;;;21;53
33432;BME280;35187;31.882;34.828;2023-05-15T08:20:58;100500;;;21;53
33432;BME280;35187;31.882;34.828;2023-05-15T08:23:27;100500;;;21;53
33432;BME280;35187;31.882;34.828;2023-05-15T08:25:57;100500;;;21;53
33432;BME280;35187;31.882;34.828;2023-05-15T08:28:27;100490;;;21;53
33432;BME280;35187;31.882;34.828;2023-05-15T08:30:56;100480;;;21;53
33432;BME280;35187;31.882;34.828;2023-05-15T08:33:27;100480;;;21;53
33432;BME280;35187;31.882;34.828;2023-05-15T08:35:57;100480;;;22;53
33432;BME280;35187;31.882;34.828;2023-05-15T08:38:26;100480;;;22;53
33432;BME280;35187;31.882;34.828;2023-05-15T08:40:57;100470;;;22;53
33432;BME280;35187;31.882;34.828;2023-05-15T08:43:31;100470;;;21;53
33432;BME280;35187;31.882;34.828;2023-05-15T08:46:05;100470;;;21;53
33432;BME280;35187;31.882;34.828;2023-05-15T08:48:37;100470;;;22;53
33432;BME280;35187;31.882;34.828;2023-05-15T08:51:08;100470;;;21;53
33432;BME280;35187;31.882;34.828;2023-05-15T08:53:38;100470;;;22;53
33432;BME280;35187;31.882;34.828;2023-05-15T08:56:08;100460;;;21;53
33432;BME280;35187;31.882;34.828;2023-05-15T08:58:43;100470;;;22;53
33432;BME280;35187;31.882;34.828;2023-05-15T09:01:13;100460;;;22;53
33432;BME280;35187;31.882;34.828;2023-05-15T09:03:43;100460;;;21;54
33432;BME280;35187;31.882;34.828;2023-05-15T09:06:13;100460;;;22;53
33432;BME280;35187;31.882;34.828;2023-05-15T09:08:43;100460;;;22;54
33432;BME280;35187;31.882;34.828;2023-05-15T09:11:13;100460;;;22;54
33432;BME280;35187;31.882;34.828;2023-05-15T09:13:43;100450;;;21;54
33432;BME280;35187;31.882;34.828;2023-05-15T09:16:12;100460;;;21;54
33432;BME280;35187;31.882;34.828;2023-05-15T09:18:41;100450;;;21;54
33432;BME280;35187;31.882;34.828;2023-05-15T09:21:29;100440;;;22;54
33432;BME280;35187;31.882;34.828;2023-05-15T09:24:16;100440;;;21;54
33432;BME280;35187;31.882;34.828;2023-05-15T09:26:46;100430;;;21;54
33432;BME280;35187;31.882;34.828;2023-05-15T09:29:16;100430;;;21;54
33432;BME280;35187;31.882;34.828;2023-05-15T09:31:47;100420;;;21;54
33432;BME280;35187;31.882;34.828;2023-05-15T09:34:17;100420;;;22;55
33432;BME280;35187;31.882;34.828;2023-05-15T09:36:46;100420;;;21;55
33432;BME280;35187;31.882;34.828;2023-05-15T09:39:22;100420;;;21;55
33432;BME280;35187;31.882;34.828;2023-05-15T09:41:52;100420;;;21;55
33432;BME280;35187;31.882;34.828;2023-05-15T09:44:25;100420;;;22;55
33432;BME280;35187;31.882;34.828;2023-05-15T09:46:57;100410;;;21;55
33432;BME280;35187;31.882;34.828;2023-05-15T09:49:27;100410;;;21;55
33432;BME280;35187;31.882;34.828;2023-05-15T09:51:59;100420;;;22;55
33432;BME280;35187;31.882;34.828;2023-05-15T09:54:29;100420;;;22;56
33432;BME280;35187;31.882;34.828;2023-05-15T09:57:07;100410;;;22;57
33432;BME280;35187;31.882;34.828;2023-05-15T09:59:43;100410;;;22;57
33432;BME280;35187;31.882;34.828;2023-05-15T10:02:13;100410;;;22;57
33432;BME280;35187;31.882;34.828;2023-05-15T10:04:54;100400;;;22;57
33432;BME280;35187;31.882;34.828;2023-05-15T10:07:31;100400;;;22;58
33432;BME280;35187;31.882;34.828;2023-05-15T10:10:02;100400;;;22;58
33432;BME280;35187;31.882;34.828;2023-05-15T10:12:34;100390;;;22;58
33432;BME280;35187;31.882;34.828;2023-05-15T10:15:05;100390;;;22;58
33432;BME280;35187;31.882;34.828;2023-05-15T10:17:35;100390;;;22;58
33432;BME280;35187;31.882;34.828;2023-05-15T10:20:08;100380;;;22;58
33432;BME280;35187;31.882;34.828;2023-05-15T10:22:39;100370;;;22;59
33432;BME280;35187;31.882;34.828;2023-05-15T10:25:17;100370;;;22;59
33432;BME280;35187;31.882;34.828;2023-05-15T10:27:50;100370;;;22;59
33432;BME280;35187;31.882;34.828;2023-05-15T10:30:20;100370;;;22;59
33432;BME280;35187;31.882;34.828;2023-05-15T10:32:49;100360;;;22;59
33432;BME280;35187;31.882;34.828;2023-05-15T10:35:28;100360;;;22;59
33432;BME280;35187;31.882;34.828;2023-05-15T10:37:58;100360;;;22;59
33432;BME280;35187;31.882;34.828;2023-05-15T10:40:27;100360;;;22;59
33432;BME280;35187;31.882;34.828;2023-05-15T10:43:18;100360;;;22;59
33432;BME280;35187;31.882;34.828;2023-05-15T10:45:51;100350;;;22;59
33432;BME280;35187;31.882;34.828;2023-05-15T10:48:21;100340;;;22;59
33432;BME280;35187;31.882;34.828;2023-05-15T10:50:53;100340;;;22;59
33432;BME280;35187;31.882;34.828;2023-05-15T10:53:25;100340;;;22;59
33432;BME280;35187;31.882;34.828;2023-05-15T10:55:54;100340;;;22;59
33432;BME280;35187;31.882;34.828;2023-05-15T10:58:23;100330;;;22;59
33432;BME280;35187;31.882;34.828;2023-05-15T11:00:56;100330;;;22;59
33432;BME280;35187;31.882;34.828;2023-05-15T11:03:37;100330;;;22;59
33432;BME280;35187;31.882;34.828;2023-05-15T11:06:07;100320;;;22;59
33432;BME280;35187;31.882;34.828;2023-05-15T11:08:38;100320;;;22;59
33432;BME280;35187;31.882;34.828;2023-05-15T11:11:07;100320;;;22;59
33432;BME280;35187;31.882;34.828;2023-05-15T11:14:13;100310;;;22;59
33432;BME280;35187;31.882;34.828;2023-05-15T11:17:01;100310;;;22;59
33432;BME280;35187;31.882;34.828;2023-05-15T11:19:36;100300;;;22;60
33432;BME280;35187;31.882;34.828;2023-05-15T11:22:18;100290;;;22;59
33432;BME280;35187;31.882;34.828;2023-05-15T11:24:50;100290;;;22;59
33432;BME280;35187;31.882;34.828;2023-05-15T11:27:22;100280;;;22;59
33432;BME280;35187;31.882;34.828;2023-05-15T11:30:13;100280;;;22;59
33432;BME280;35187;31.882;34.828;2023-05-15T11:32:47;100270;;;21;59
33432;BME280;35187;31.882;34.828;2023-05-15T11:35:24;100260;;;22;59
33432;BME280;35187;31.882;34.828;2023-05-15T11:37:55;100260;;;22;59
33432;BME280;35187;31.882;34.828;2023-05-15T11:40:27;100260;;;22;59
33432;BME280;35187;31.882;34.828;2023-05-15T11:43:16;100260;;;22;59
33432;BME280;35187;31.882;34.828;2023-05-15T11:45:48;100250;;;22;59
33432;BME280;35187;31.882;34.828;2023-05-15T11:48:18;100240;;;22;59
33432;BME280;35187;31.882;34.828;2023-05-15T11:50:48;100240;;;22;59
33432;BME280;35187;31.882;34.828;2023-05-15T11:53:18;100240;;;22;58
33432;BME280;35187;31.882;34.828;2023-05-15T11:55:47;100240;;;22;58
33432;BME280;35187;31.882;34.828;2023-05-15T11:58:20;100230;;;22;58
33432;BME280;35187;31.882;34.828;2023-05-15T12:00:50;100220;;;22;58
33432;BME280;35187;31.882;34.828;2023-05-15T12:03:23;100220;;;22;58
33432;BME280;35187;31.882;34.828;2023-05-15T12:05:52;100220;;;22;58
33432;BME280;35187;31.882;34.828;2023-05-15T12:08:21;100220;;;22;57
33432;BME280;35187;31.882;34.828;2023-05-15T12:10:51;100210;;;22;57
33432;BME280;35187;31.882;34.828;2023-05-15T12:13:20;100220;;;22;57
33432;BME280;35187;31.882;34.828;2023-05-15T12:15:50;100210;;;22;57
33432;BME280;35187;31.882;34.828;2023-05-15T12:18:21;100210;;;22;57
33432;BME280;35187;31.882;34.828;2023-05-15T12:20:53;100200;;;22;57
33432;BME280;35187;31.882;34.828;2023-05-15T12:23:24;100200;;;22;57
33432;BME280;35187;31.882;34.828;2023-05-15T12:25:57;100200;;;22;57
33432;BME280;35187;31.882;34.828;2023-05-15T12:28:33;100200;;;22;57
33432;BME280;35187;31.882;34.828;2023-05-15T12:31:03;100200;;;22;57
33432;BME280;35187;31.882;34.828;2023-05-15T12:33:32;100200;;;22;57
33432;BME280;35187;31.882;34.828;2023-05-15T12:36:02;100200;;;22;57
33432;BME280;35187;31.882;34.828;2023-05-15T12:38:32;100190;;;22;57
33432;BME280;35187;31.882;34.828;2023-05-15T12:41:01;100190;;;22;57
33432;BME280;35187;31.882;34.828;2023-05-15T12:43:36;100200;;;22;57
33432;BME280;35187;31.882;34.828;2023-05-15T12:46:05;100190;;;22;57
33432;BME280;35187;31.882;34.828;2023-05-15T12:48:36;100190;;;22;56
33432;BME280;35187;31.882;34.828;2023-05-15T12:51:06;100180;;;22;56
33432;BME280;35187;31.882;34.828;2023-05-15T12:53:36;100180;;;22;56
33432;BME280;35187;31.882;34.828;2023-05-15T12:56:06;100170;;;22;56
33432;BME280;35187;31.882;34.828;2023-05-15T12:58:36;100170;;;22;56
33432;BME280;35187;31.882;34.828;2023-05-15T13:01:06;100170;;;22;56
33432;BME280;35187;31.882;34.828;2023-05-15T13:03:37;100170;;;22;57
33432;BME280;35187;31.882;34.828;2023-05-15T13:06:06;100170;;;22;57
33432;BME280;35187;31.882;34.828;2023-05-15T13:08:39;100170;;;22;57
33432;BME280;35187;31.882;34.828;2023-05-15T13:11:13;100170;;;22;57
33432;BME280;35187;31.882;34.828;2023-05-15T13:13:43;100170;;;22;57
33432;BME280;35187;31.882;34.828;2023-05-15T13:16:21;100170;;;22;57
33432;BME280;35187;31.882;34.828;2023-05-15T13:18:51;100170;;;22;56
33432;BME280;35187;31.882;34.828;2023-05-15T13:21:21;100160;;;22;56
33432;BME280;35187;31.882;34.828;2023-05-15T13:23:50;100160;;;22;56
33432;BME280;35187;31.882;34.828;2023-05-15T13:26:20;100160;;;22;56
33432;BME280;35187;31.882;34.828;2023-05-15T13:28:48;100170;;;22;56
33432;BME280;35187;31.882;34.828;2023-05-15T13:31:18;100170;;;22;56
33432;BME280;35187;31.882;34.828;2023-05-15T13:33:48;100170;;;22;56
33432;BME280;35187;31.882;34.828;2023-05-15T13:36:17;100170;;;22;56
33432;BME280;35187;31.882;34.828;2023-05-15T13:38:46;100170;;;22;56
33432;BME280;35187;31.882;34.828;2023-05-15T13:41:16;100170;;;22;56
33432;BME280;35187;31.882;34.828;2023-05-15T13:43:45;100170;;;22;56
33432;BME280;35187;31.882;34.828;2023-05-15T13:46:14;100170;;;22;56
33432;BME280;35187;31.882;34.828;2023-05-15T13:48:44;100170;;;22;56
33432;BME280;35187;31.882;34.828;2023-05-15T13:51:13;100170;;;22;56
33432;BME280;35187;31.882;34.828;2023-05-15T13:53:42;100170;;;22;56
33432;BME280;35187;31.882;34.828;2023-05-15T13:56:12;100170;;;22;56
33432;BME280;35187;31.882;34.828;2023-05-15T13:58:41;100160;;;22;56
33432;BME280;35187;31.882;34.828;2023-05-15T14:01:10;100160;;;22;56
33432;BME280;35187;31.882;34.828;2023-05-15T14:03:39;100170;;;22;56
33432;BME280;35187;31.882;34.828;2023-05-15T14:06:09;100160;;;22;56
33432;BME280;35187;31.882;34.828;2023-05-15T14:08:38;100170;;;22;56
33432;BME280;35187;31.882;34.828;2023-05-15T14:11:06;100170;;;22;56
33432;BME280;35187;31.882;34.828;2023-05-15T14:13:35;100170;;;22;56
33432;BME280;35187;31.882;34.828;2023-05-15T14:16:05;100170;;;22;56
33432;BME280;35187;31.882;34.828;2023-05-15T14:18:34;100170;;;22;56
33432;BME280;35187;31.882;34.828;2023-05-15T14:21:03;100160;;;22;56
33432;BME280;35187;31.882;34.828;2023-05-15T14:23:32;100170;;;22;56
33432;BME280;35187;31.882;34.828;2023-05-15T14:26:02;100160;;;22;56
33432;BME280;35187;31.882;34.828;2023-05-15T14:28:31;100160;;;22;56
33432;BME280;35187;31.882;34.828;2023-05-15T14:31:00;100160;;;22;56
33432;BME280;35187;31.882;34.828;2023-05-15T14:33:29;100160;;;22;56
33432;BME280;35187;31.882;34.828;2023-05-15T14:35:58;100160;;;22;56
33432;BME280;35187;31.882;34.828;2023-05-15T14:38:27;100160;;;22;56
33432;BME280;35187;31.882;34.828;2023-05-15T14:40:56;100160;;;22;56
33432;BME280;35187;31.882;34.828;2023-05-15T14:43:25;100160;;;22;55
33432;BME280;35187;31.882;34.828;2023-05-15T14:45:55;100160;;;22;56